sensor_id;sensor_type;location;lat;lon;timestamp;P1;durP1;ratioP1;P2;durP2;ratioP2
75937;SDS011;64615;32.062;34.834;2024-03-25T00:00:11;5.85;;;2.65;;
75937;SDS011;64615;32.062;34.834;2024-03-25T00:02:38;7.95;;;2.67;;
75937;SDS011;64615;32.062;34.834;2024-03-25T00:05:05;7.65;;;2.40;;
75937;SDS011;64615;32.062;34.834;2024-03-25T00:07:32;7.00;;;2.42;;
75937;SDS011;64615;32.062;34.834;2024-03-25T00:09:58;6.38;;;2.92;;
75937;SDS011;64615;32.062;34.834;2024-03-25T00:12:25;8.20;;;2.40;;
75937;SDS011;64615;32.062;34.834;2024-03-25T00:14:51;7.70;;;2.45;;
75937;SDS011;64615;32.062;34.834;2024-03-25T00:17:17;6.15;;;2.22;;
75937;SDS011;64615;32.062;34.834;2024-03-25T00:19:42;5.03;;;2.28;;
75937;SDS011;64615;32.062;34.834;2024-03-25T00:22:13;5.95;;;2.40;;
75937;SDS011;64615;32.062;34.834;2024-03-25T00:24:39;8.57;;;2.47;;
75937;SDS011;64615;32.062;34.834;2024-03-25T00:27:04;6.10;;;2.10;;
75937;SDS011;64615;32.062;34.834;2024-03-25T00:29:30;5.00;;;2.10;;
75937;SDS011;64615;32.062;34.834;2024-03-25T00:31:55;5.72;;;2.28;;
75937;SDS011;64615;32.062;34.834;2024-03-25T00:34:21;6.78;;;2.10;;
75937;SDS011;64615;32.062;34.834;2024-03-25T00:36:47;5.75;;;2.28;;
75937;SDS011;64615;32.062;34.834;2024-03-25T00:39:13;7.70;;;2.40;;
75937;SDS011;64615;32.062;34.834;2024-03-25T00:41:39;5.43;;;2.22;;
75937;SDS011;64615;32.062;34.834;2024-03-25T00:44:04;7.75;;;2.15;;
75937;SDS011;64615;32.062;34.834;2024-03-25T00:46:30;9.13;;;2.15;;
75937;SDS011;64615;32.062;34.834;2024-03-25T00:48:56;5.22;;;2.00;;
75937;SDS011;64615;32.062;34.834;2024-03-25T00:51:21;6.15;;;2.40;;
75937;SDS011;64615;32.062;34.834;2024-03-25T00:53:47;4.38;;;2.00;;
75937;SDS011;64615;32.062;34.834;2024-03-25T00:56:12;7.60;;;2.25;;
75937;SDS011;64615;32.062;34.834;2024-03-25T00:58:38;6.22;;;1.92;;
75937;SDS011;64615;32.062;34.834;2024-03-25T01:01:04;5.22;;;2.30;;
75937;SDS011;64615;32.062;34.834;2024-03-25T01:03:29;6.00;;;1.95;;
75937;SDS011;64615;32.062;34.834;2024-03-25T01:05:55;7.47;;;2.20;;
75937;SDS011;64615;32.062;34.834;2024-03-25T01:08:21;10.02;;;2.78;;
75937;SDS011;64615;32.062;34.834;2024-03-25T01:10:46;4.70;;;2.00;;
75937;SDS011;64615;32.062;34.834;2024-03-25T01:13:12;6.47;;;2.20;;
75937;SDS011;64615;32.062;34.834;2024-03-25T01:15:37;5.38;;;1.85;;
75937;SDS011;64615;32.062;34.834;2024-03-25T01:18:03;8.75;;;2.75;;
75937;SDS011;64615;32.062;34.834;2024-03-25T01:20:29;4.55;;;2.03;;
75937;SDS011;64615;32.062;34.834;2024-03-25T01:22:55;5.45;;;1.90;;
75937;SDS011;64615;32.062;34.834;2024-03-25T01:25:20;6.85;;;2.45;;
75937;SDS011;64615;32.062;34.834;2024-03-25T01:27:46;8.25;;;2.05;;
75937;SDS011;64615;32.062;34.834;2024-03-25T01:30:12;6.22;;;2.20;;
75937;SDS011;64615;32.062;34.834;2024-03-25T01:32:38;6.90;;;2.38;;
75937;SDS011;64615;32.062;34.834;2024-03-25T01:35:03;6.88;;;2.10;;
75937;SDS011;64615;32.062;34.834;2024-03-25T01:37:29;6.80;;;2.55;;
75937;SDS011;64615;32.062;34.834;2024-03-25T01:39:55;7.13;;;2.42;;
75937;SDS011;64615;32.062;34.834;2024-03-25T01:42:20;5.90;;;2.10;;
75937;SDS011;64615;32.062;34.834;2024-03-25T01:44:46;5.32;;;2.35;;
75937;SDS011;64615;32.062;34.834;2024-03-25T01:47:13;9.20;;;2.67;;
75937;SDS011;64615;32.062;34.834;2024-03-25T01:49:39;5.05;;;2.00;;
75937;SDS011;64615;32.062;34.834;2024-03-25T01:52:05;6.07;;;2.40;;
75937;SDS011;64615;32.062;34.834;2024-03-25T01:54:31;6.22;;;2.30;;
75937;SDS011;64615;32.062;34.834;2024-03-25T01:56:57;4.25;;;1.90;;
75937;SDS011;64615;32.062;34.834;2024-03-25T01:59:23;5.38;;;2.25;;
75937;SDS011;64615;32.062;34.834;2024-03-25T02:01:51;6.97;;;1.85;;
75937;SDS011;64615;32.062;34.834;2024-03-25T02:04:17;6.53;;;2.13;;
75937;SDS011;64615;32.062;34.834;2024-03-25T02:06:42;5.72;;;2.30;;
75937;SDS011;64615;32.062;34.834;2024-03-25T02:09:11;5.72;;;1.92;;
75937;SDS011;64615;32.062;34.834;2024-03-25T02:11:38;8.15;;;2.10;;
75937;SDS011;64615;32.062;34.834;2024-03-25T02:14:04;4.53;;;2.10;;
75937;SDS011;64615;32.062;34.834;2024-03-25T02:16:31;4.75;;;2.20;;
75937;SDS011;64615;32.062;34.834;2024-03-25T02:18:57;7.47;;;2.00;;
75937;SDS011;64615;32.062;34.834;2024-03-25T02:21:22;4.93;;;2.15;;
75937;SDS011;64615;32.062;34.834;2024-03-25T02:23:48;6.00;;;2.30;;
75937;SDS011;64615;32.062;34.834;2024-03-25T02:26:19;3.60;;;2.00;;
75937;SDS011;64615;32.062;34.834;2024-03-25T02:28:44;6.97;;;2.20;;
75937;SDS011;64615;32.062;34.834;2024-03-25T02:31:10;3.65;;;2.00;;
75937;SDS011;64615;32.062;34.834;2024-03-25T02:33:35;4.32;;;2.03;;
75937;SDS011;64615;32.062;34.834;2024-03-25T02:36:01;7.50;;;2.42;;
75937;SDS011;64615;32.062;34.834;2024-03-25T02:38:27;9.00;;;2.10;;
75937;SDS011;64615;32.062;34.834;2024-03-25T02:40:53;5.00;;;1.98;;
75937;SDS011;64615;32.062;34.834;2024-03-25T02:43:19;4.05;;;1.90;;
75937;SDS011;64615;32.062;34.834;2024-03-25T02:45:46;6.95;;;2.25;;
75937;SDS011;64615;32.062;34.834;2024-03-25T02:48:12;4.85;;;1.77;;
75937;SDS011;64615;32.062;34.834;2024-03-25T02:50:38;8.63;;;2.10;;
75937;SDS011;64615;32.062;34.834;2024-03-25T02:53:03;5.43;;;2.10;;
75937;SDS011;64615;32.062;34.834;2024-03-25T02:55:29;4.78;;;2.10;;
75937;SDS011;64615;32.062;34.834;2024-03-25T02:57:54;5.60;;;2.05;;
75937;SDS011;64615;32.062;34.834;2024-03-25T03:00:20;6.32;;;2.28;;
75937;SDS011;64615;32.062;34.834;2024-03-25T03:02:46;6.00;;;1.70;;
75937;SDS011;64615;32.062;34.834;2024-03-25T03:05:11;4.63;;;2.15;;
75937;SDS011;64615;32.062;34.834;2024-03-25T03:07:37;5.95;;;2.22;;
75937;SDS011;64615;32.062;34.834;2024-03-25T03:10:02;3.15;;;1.70;;
75937;SDS011;64615;32.062;34.834;2024-03-25T03:12:28;5.57;;;1.88;;
75937;SDS011;64615;32.062;34.834;2024-03-25T03:14:54;5.07;;;1.88;;
75937;SDS011;64615;32.062;34.834;2024-03-25T03:17:19;4.68;;;1.92;;
75937;SDS011;64615;32.062;34.834;2024-03-25T03:19:45;4.05;;;1.70;;
75937;SDS011;64615;32.062;34.834;2024-03-25T03:22:11;5.70;;;2.05;;
75937;SDS011;64615;32.062;34.834;2024-03-25T03:24:36;5.55;;;1.92;;
75937;SDS011;64615;32.062;34.834;2024-03-25T03:27:02;6.03;;;1.85;;
75937;SDS011;64615;32.062;34.834;2024-03-25T03:29:28;9.63;;;2.28;;
75937;SDS011;64615;32.062;34.834;2024-03-25T03:31:54;8.50;;;2.25;;
75937;SDS011;64615;32.062;34.834;2024-03-25T03:34:20;8.10;;;2.10;;
75937;SDS011;64615;32.062;34.834;2024-03-25T03:36:46;7.55;;;2.08;;
75937;SDS011;64615;32.062;34.834;2024-03-25T03:39:11;9.13;;;1.98;;
75937;SDS011;64615;32.062;34.834;2024-03-25T03:41:38;6.70;;;2.08;;
75937;SDS011;64615;32.062;34.834;2024-03-25T03:44:04;7.43;;;1.92;;
75937;SDS011;64615;32.062;34.834;2024-03-25T03:46:29;8.32;;;1.70;;
75937;SDS011;64615;32.062;34.834;2024-03-25T03:48:55;5.45;;;2.13;;
75937;SDS011;64615;32.062;34.834;2024-03-25T03:51:21;5.05;;;1.98;;
75937;SDS011;64615;32.062;34.834;2024-03-25T03:53:46;10.07;;;2.10;;
75937;SDS011;64615;32.062;34.834;2024-03-25T03:56:12;7.88;;;2.85;;
75937;SDS011;64615;32.062;34.834;2024-03-25T03:58:38;10.00;;;2.10;;
75937;SDS011;64615;32.062;34.834;2024-03-25T04:01:03;10.70;;;2.20;;
75937;SDS011;64615;32.062;34.834;2024-03-25T04:03:30;12.15;;;2.55;;
75937;SDS011;64615;32.062;34.834;2024-03-25T04:05:55;13.18;;;2.53;;
75937;SDS011;64615;32.062;34.834;2024-03-25T04:08:21;6.40;;;2.15;;
75937;SDS011;64615;32.062;34.834;2024-03-25T04:10:47;14.57;;;2.50;;
75937;SDS011;64615;32.062;34.834;2024-03-25T04:13:12;13.45;;;2.47;;
75937;SDS011;64615;32.062;34.834;2024-03-25T04:15:38;22.35;;;3.03;;
75937;SDS011;64615;32.062;34.834;2024-03-25T04:18:05;38.47;;;3.38;;
75937;SDS011;64615;32.062;34.834;2024-03-25T04:20:40;48.00;;;3.85;;
75937;SDS011;64615;32.062;34.834;2024-03-25T04:23:06;26.25;;;3.00;;
75937;SDS011;64615;32.062;34.834;2024-03-25T04:25:32;38.15;;;3.70;;
75937;SDS011;64615;32.062;34.834;2024-03-25T04:27:59;30.80;;;3.58;;
75937;SDS011;64615;32.062;34.834;2024-03-25T04:30:25;19.55;;;2.88;;
75937;SDS011;64615;32.062;34.834;2024-03-25T04:32:51;34.45;;;3.55;;
75937;SDS011;64615;32.062;34.834;2024-03-25T04:35:17;20.23;;;2.75;;
75937;SDS011;64615;32.062;34.834;2024-03-25T04:37:42;20.23;;;3.15;;
75937;SDS011;64615;32.062;34.834;2024-03-25T04:40:08;14.07;;;2.83;;
75937;SDS011;64615;32.062;34.834;2024-03-25T04:42:35;16.17;;;2.97;;
75937;SDS011;64615;32.062;34.834;2024-03-25T04:45:01;20.70;;;3.10;;
75937;SDS011;64615;32.062;34.834;2024-03-25T04:47:27;16.90;;;2.70;;
75937;SDS011;64615;32.062;34.834;2024-03-25T04:49:52;33.55;;;3.92;;
75937;SDS011;64615;32.062;34.834;2024-03-25T04:52:18;23.65;;;3.33;;
75937;SDS011;64615;32.062;34.834;2024-03-25T04:54:44;25.30;;;2.92;;
75937;SDS011;64615;32.062;34.834;2024-03-25T04:57:10;20.63;;;2.92;;
75937;SDS011;64615;32.062;34.834;2024-03-25T04:59:36;17.23;;;2.80;;
75937;SDS011;64615;32.062;34.834;2024-03-25T05:02:01;21.05;;;2.97;;
75937;SDS011;64615;32.062;34.834;2024-03-25T05:04:27;31.00;;;3.05;;
75937;SDS011;64615;32.062;34.834;2024-03-25T05:06:53;15.20;;;2.55;;
75937;SDS011;64615;32.062;34.834;2024-03-25T05:09:19;13.57;;;2.90;;
75937;SDS011;64615;32.062;34.834;2024-03-25T05:11:45;24.83;;;4.35;;
75937;SDS011;64615;32.062;34.834;2024-03-25T05:14:10;15.02;;;8.70;;
75937;SDS011;64615;32.062;34.834;2024-03-25T05:16:36;22.52;;;6.32;;
75937;SDS011;64615;32.062;34.834;2024-03-25T05:19:02;22.27;;;5.18;;
75937;SDS011;64615;32.062;34.834;2024-03-25T05:21:29;32.08;;;16.08;;
75937;SDS011;64615;32.062;34.834;2024-03-25T05:23:56;24.70;;;15.75;;
75937;SDS011;64615;32.062;34.834;2024-03-25T05:26:21;31.15;;;22.75;;
75937;SDS011;64615;32.062;34.834;2024-03-25T05:28:51;44.05;;;31.88;;
75937;SDS011;64615;32.062;34.834;2024-03-25T05:31:22;30.52;;;26.70;;
75937;SDS011;64615;32.062;34.834;2024-03-25T05:33:48;24.42;;;20.10;;
75937;SDS011;64615;32.062;34.834;2024-03-25T05:36:14;28.73;;;16.13;;
75937;SDS011;64615;32.062;34.834;2024-03-25T05:38:40;22.92;;;15.18;;
75937;SDS011;64615;32.062;34.834;2024-03-25T05:41:10;20.38;;;14.23;;
75937;SDS011;64615;32.062;34.834;2024-03-25T05:43:36;17.02;;;11.60;;
75937;SDS011;64615;32.062;34.834;2024-03-25T05:46:02;24.98;;;11.73;;
75937;SDS011;64615;32.062;34.834;2024-03-25T05:48:28;24.90;;;10.55;;
75937;SDS011;64615;32.062;34.834;2024-03-25T05:53:27;14.95;;;8.43;;
75937;SDS011;64615;32.062;34.834;2024-03-25T05:55:53;16.63;;;8.68;;
75937;SDS011;64615;32.062;34.834;2024-03-25T05:58:19;16.75;;;8.00;;
75937;SDS011;64615;32.062;34.834;2024-03-25T06:00:48;16.25;;;7.05;;
75937;SDS011;64615;32.062;34.834;2024-03-25T06:03:14;15.40;;;6.38;;
75937;SDS011;64615;32.062;34.834;2024-03-25T06:05:41;18.10;;;6.18;;
75937;SDS011;64615;32.062;34.834;2024-03-25T06:08:07;13.32;;;5.63;;
75937;SDS011;64615;32.062;34.834;2024-03-25T06:10:41;20.42;;;5.43;;
75937;SDS011;64615;32.062;34.834;2024-03-25T06:13:07;11.45;;;4.97;;
75937;SDS011;64615;32.062;34.834;2024-03-25T06:15:32;16.45;;;4.30;;
75937;SDS011;64615;32.062;34.834;2024-03-25T06:17:58;10.63;;;3.97;;
75937;SDS011;64615;32.062;34.834;2024-03-25T06:20:23;13.73;;;3.72;;
75937;SDS011;64615;32.062;34.834;2024-03-25T06:22:49;8.23;;;3.65;;
75937;SDS011;64615;32.062;34.834;2024-03-25T06:25:16;11.38;;;3.25;;
75937;SDS011;64615;32.062;34.834;2024-03-25T06:27:42;9.05;;;3.20;;
75937;SDS011;64615;32.062;34.834;2024-03-25T06:30:09;7.93;;;3.28;;
75937;SDS011;64615;32.062;34.834;2024-03-25T06:32:54;6.95;;;3.05;;
75937;SDS011;64615;32.062;34.834;2024-03-25T06:35:38;10.38;;;3.33;;
75937;SDS011;64615;32.062;34.834;2024-03-25T06:38:03;10.52;;;3.20;;
75937;SDS011;64615;32.062;34.834;2024-03-25T06:40:29;9.80;;;3.00;;
75937;SDS011;64615;32.062;34.834;2024-03-25T06:42:55;8.27;;;3.00;;
75937;SDS011;64615;32.062;34.834;2024-03-25T06:45:21;8.15;;;2.47;;
75937;SDS011;64615;32.062;34.834;2024-03-25T06:47:47;9.50;;;2.80;;
75937;SDS011;64615;32.062;34.834;2024-03-25T06:50:12;7.68;;;2.70;;
75937;SDS011;64615;32.062;34.834;2024-03-25T06:52:38;7.15;;;2.55;;
75937;SDS011;64615;32.062;34.834;2024-03-25T06:55:04;7.57;;;2.60;;
75937;SDS011;64615;32.062;34.834;2024-03-25T06:57:30;8.77;;;2.70;;
75937;SDS011;64615;32.062;34.834;2024-03-25T06:59:55;6.63;;;2.58;;
75937;SDS011;64615;32.062;34.834;2024-03-25T07:02:23;6.80;;;2.60;;
75937;SDS011;64615;32.062;34.834;2024-03-25T07:04:48;5.95;;;2.63;;
75937;SDS011;64615;32.062;34.834;2024-03-25T07:07:14;6.80;;;2.70;;
75937;SDS011;64615;32.062;34.834;2024-03-25T07:09:40;6.97;;;2.42;;
75937;SDS011;64615;32.062;34.834;2024-03-25T07:12:06;15.60;;;2.72;;
75937;SDS011;64615;32.062;34.834;2024-03-25T07:14:32;7.97;;;2.55;;
75937;SDS011;64615;32.062;34.834;2024-03-25T07:16:58;11.43;;;3.13;;
75937;SDS011;64615;32.062;34.834;2024-03-25T07:19:23;6.28;;;2.55;;
75937;SDS011;64615;32.062;34.834;2024-03-25T07:21:49;9.68;;;3.00;;
75937;SDS011;64615;32.062;34.834;2024-03-25T07:24:15;9.30;;;2.92;;
75937;SDS011;64615;32.062;34.834;2024-03-25T07:26:41;38.33;;;34.63;;
75937;SDS011;64615;32.062;34.834;2024-03-25T07:29:06;34.42;;;31.42;;
75937;SDS011;64615;32.062;34.834;2024-03-25T07:31:32;18.77;;;14.43;;
75937;SDS011;64615;32.062;34.834;2024-03-25T07:33:58;12.65;;;8.13;;
75937;SDS011;64615;32.062;34.834;2024-03-25T07:36:24;15.20;;;10.40;;
75937;SDS011;64615;32.062;34.834;2024-03-25T07:38:49;15.88;;;8.80;;
75937;SDS011;64615;32.062;34.834;2024-03-25T07:41:15;38.50;;;29.83;;
75937;SDS011;64615;32.062;34.834;2024-03-25T07:43:40;17.48;;;12.02;;
75937;SDS011;64615;32.062;34.834;2024-03-25T07:46:06;13.20;;;9.25;;
75937;SDS011;64615;32.062;34.834;2024-03-25T07:48:32;12.05;;;8.23;;
75937;SDS011;64615;32.062;34.834;2024-03-25T07:50:57;11.75;;;7.43;;
75937;SDS011;64615;32.062;34.834;2024-03-25T07:53:23;14.25;;;6.53;;
75937;SDS011;64615;32.062;34.834;2024-03-25T07:55:48;9.93;;;5.57;;
75937;SDS011;64615;32.062;34.834;2024-03-25T07:58:16;10.80;;;5.40;;
75937;SDS011;64615;32.062;34.834;2024-03-25T08:00:41;10.57;;;4.38;;
75937;SDS011;64615;32.062;34.834;2024-03-25T08:03:07;7.90;;;2.83;;
75937;SDS011;64615;32.062;34.834;2024-03-25T08:05:33;9.88;;;2.55;;
75937;SDS011;64615;32.062;34.834;2024-03-25T08:07:59;14.90;;;2.50;;
75937;SDS011;64615;32.062;34.834;2024-03-25T08:10:24;7.40;;;1.70;;
75937;SDS011;64615;32.062;34.834;2024-03-25T08:12:50;7.35;;;1.52;;
75937;SDS011;64615;32.062;34.834;2024-03-25T08:15:15;8.23;;;1.80;;
75937;SDS011;64615;32.062;34.834;2024-03-25T08:17:41;8.77;;;2.17;;
75937;SDS011;64615;32.062;34.834;2024-03-25T08:20:07;8.98;;;1.80;;
75937;SDS011;64615;32.062;34.834;2024-03-25T08:22:33;7.10;;;1.75;;
75937;SDS011;64615;32.062;34.834;2024-03-25T08:24:59;6.40;;;1.58;;
75937;SDS011;64615;32.062;34.834;2024-03-25T08:27:24;6.22;;;1.30;;
75937;SDS011;64615;32.062;34.834;2024-03-25T08:29:50;5.25;;;1.40;;
75937;SDS011;64615;32.062;34.834;2024-03-25T08:32:18;3.88;;;1.13;;
75937;SDS011;64615;32.062;34.834;2024-03-25T08:34:44;6.43;;;1.90;;
75937;SDS011;64615;32.062;34.834;2024-03-25T08:37:10;5.80;;;1.60;;
75937;SDS011;64615;32.062;34.834;2024-03-25T08:39:36;4.13;;;1.50;;
75937;SDS011;64615;32.062;34.834;2024-03-25T08:42:01;5.32;;;1.40;;
75937;SDS011;64615;32.062;34.834;2024-03-25T08:44:28;3.17;;;1.38;;
75937;SDS011;64615;32.062;34.834;2024-03-25T08:46:53;7.45;;;1.33;;
75937;SDS011;64615;32.062;34.834;2024-03-25T08:49:19;3.00;;;1.20;;
75937;SDS011;64615;32.062;34.834;2024-03-25T08:51:45;5.35;;;1.42;;
75937;SDS011;64615;32.062;34.834;2024-03-25T08:54:10;4.13;;;1.30;;
75937;SDS011;64615;32.062;34.834;2024-03-25T08:56:36;4.03;;;1.20;;
75937;SDS011;64615;32.062;34.834;2024-03-25T08:59:02;4.45;;;1.25;;
75937;SDS011;64615;32.062;34.834;2024-03-25T09:01:28;5.55;;;1.60;;
75937;SDS011;64615;32.062;34.834;2024-03-25T09:03:55;7.55;;;1.52;;
75937;SDS011;64615;32.062;34.834;2024-03-25T09:06:21;7.35;;;1.23;;
75937;SDS011;64615;32.062;34.834;2024-03-25T09:08:47;4.32;;;1.30;;
75937;SDS011;64615;32.062;34.834;2024-03-25T09:11:31;3.78;;;1.30;;
75937;SDS011;64615;32.062;34.834;2024-03-25T09:13:57;6.15;;;1.38;;
75937;SDS011;64615;32.062;34.834;2024-03-25T09:16:22;9.20;;;1.48;;
75937;SDS011;64615;32.062;34.834;2024-03-25T09:18:48;7.25;;;1.45;;
75937;SDS011;64615;32.062;34.834;2024-03-25T09:21:14;12.15;;;1.50;;
75937;SDS011;64615;32.062;34.834;2024-03-25T09:23:39;6.75;;;1.55;;
75937;SDS011;64615;32.062;34.834;2024-03-25T09:26:05;6.32;;;1.20;;
75937;SDS011;64615;32.062;34.834;2024-03-25T09:28:30;6.25;;;1.77;;
75937;SDS011;64615;32.062;34.834;2024-03-25T09:30:56;13.40;;;1.55;;
75937;SDS011;64615;32.062;34.834;2024-03-25T09:33:22;13.23;;;1.70;;
75937;SDS011;64615;32.062;34.834;2024-03-25T09:35:47;6.80;;;1.40;;
75937;SDS011;64615;32.062;34.834;2024-03-25T09:38:13;6.03;;;1.63;;
75937;SDS011;64615;32.062;34.834;2024-03-25T09:40:41;9.63;;;1.70;;
75937;SDS011;64615;32.062;34.834;2024-03-25T09:43:16;6.85;;;1.50;;
75937;SDS011;64615;32.062;34.834;2024-03-25T09:45:49;5.78;;;1.40;;
75937;SDS011;64615;32.062;34.834;2024-03-25T09:48:17;5.78;;;1.40;;
75937;SDS011;64615;32.062;34.834;2024-03-25T09:50:44;9.00;;;1.85;;
75937;SDS011;64615;32.062;34.834;2024-03-25T09:53:10;10.32;;;1.60;;
75937;SDS011;64615;32.062;34.834;2024-03-25T09:55:36;10.05;;;1.55;;
75937;SDS011;64615;32.062;34.834;2024-03-25T09:58:02;5.40;;;1.65;;
75937;SDS011;64615;32.062;34.834;2024-03-25T10:00:29;9.98;;;1.83;;
75937;SDS011;64615;32.062;34.834;2024-03-25T10:02:55;8.30;;;1.95;;
75937;SDS011;64615;32.062;34.834;2024-03-25T10:05:21;11.15;;;1.52;;
75937;SDS011;64615;32.062;34.834;2024-03-25T10:07:47;16.50;;;2.40;;
75937;SDS011;64615;32.062;34.834;2024-03-25T10:10:13;11.45;;;2.05;;
75937;SDS011;64615;32.062;34.834;2024-03-25T10:12:38;11.07;;;2.10;;
75937;SDS011;64615;32.062;34.834;2024-03-25T10:15:06;7.72;;;1.70;;
75937;SDS011;64615;32.062;34.834;2024-03-25T10:17:32;13.45;;;1.85;;
75937;SDS011;64615;32.062;34.834;2024-03-25T10:19:57;11.27;;;1.75;;
75937;SDS011;64615;32.062;34.834;2024-03-25T10:22:23;8.95;;;1.83;;
75937;SDS011;64615;32.062;34.834;2024-03-25T10:24:49;10.38;;;2.22;;
75937;SDS011;64615;32.062;34.834;2024-03-25T10:29:45;7.10;;;1.40;;
75937;SDS011;64615;32.062;34.834;2024-03-25T10:32:14;5.43;;;1.50;;
75937;SDS011;64615;32.062;34.834;2024-03-25T10:37:07;6.63;;;1.75;;
75937;SDS011;64615;32.062;34.834;2024-03-25T10:39:34;10.05;;;1.83;;
75937;SDS011;64615;32.062;34.834;2024-03-25T10:42:04;7.70;;;1.50;;
75937;SDS011;64615;32.062;34.834;2024-03-25T10:44:31;7.85;;;1.50;;
75937;SDS011;64615;32.062;34.834;2024-03-25T10:47:01;5.35;;;1.40;;
75937;SDS011;64615;32.062;34.834;2024-03-25T10:49:38;3.92;;;1.48;;
75937;SDS011;64615;32.062;34.834;2024-03-25T10:52:24;5.60;;;1.42;;
75937;SDS011;64615;32.062;34.834;2024-03-25T10:54:54;5.68;;;1.30;;
75937;SDS011;64615;32.062;34.834;2024-03-25T10:57:21;4.57;;;1.40;;
75937;SDS011;64615;32.062;34.834;2024-03-25T10:59:48;6.40;;;1.30;;
75937;SDS011;64615;32.062;34.834;2024-03-25T11:02:14;7.32;;;1.20;;
75937;SDS011;64615;32.062;34.834;2024-03-25T11:04:42;8.27;;;1.38;;
75937;SDS011;64615;32.062;34.834;2024-03-25T11:07:10;3.63;;;1.30;;
75937;SDS011;64615;32.062;34.834;2024-03-25T11:09:37;5.95;;;1.23;;
75937;SDS011;64615;32.062;34.834;2024-03-25T11:12:04;5.90;;;1.23;;
75937;SDS011;64615;32.062;34.834;2024-03-25T11:14:30;6.43;;;1.30;;
75937;SDS011;64615;32.062;34.834;2024-03-25T11:16:57;5.00;;;1.50;;
75937;SDS011;64615;32.062;34.834;2024-03-25T11:19:28;4.57;;;1.20;;
75937;SDS011;64615;32.062;34.834;2024-03-25T11:21:57;7.15;;;1.20;;
75937;SDS011;64615;32.062;34.834;2024-03-25T11:24:32;3.17;;;1.00;;
75937;SDS011;64615;32.062;34.834;2024-03-25T11:27:01;7.63;;;1.48;;
75937;SDS011;64615;32.062;34.834;2024-03-25T11:29:27;5.00;;;1.25;;
75937;SDS011;64615;32.062;34.834;2024-03-25T11:31:53;4.15;;;1.13;;
75937;SDS011;64615;32.062;34.834;2024-03-25T11:34:19;3.30;;;1.10;;
75937;SDS011;64615;32.062;34.834;2024-03-25T11:36:45;4.15;;;1.27;;
75937;SDS011;64615;32.062;34.834;2024-03-25T11:39:13;3.90;;;1.10;;
75937;SDS011;64615;32.062;34.834;2024-03-25T11:41:41;4.80;;;1.27;;
75937;SDS011;64615;32.062;34.834;2024-03-25T11:44:07;4.00;;;1.00;;
75937;SDS011;64615;32.062;34.834;2024-03-25T11:46:36;4.05;;;1.30;;
75937;SDS011;64615;32.062;34.834;2024-03-25T11:49:05;3.47;;;1.08;;
75937;SDS011;64615;32.062;34.834;2024-03-25T11:51:32;5.40;;;1.40;;
75937;SDS011;64615;32.062;34.834;2024-03-25T11:53:58;4.05;;;1.17;;
75937;SDS011;64615;32.062;34.834;2024-03-25T11:56:25;2.95;;;0.98;;
75937;SDS011;64615;32.062;34.834;2024-03-25T11:58:51;3.03;;;1.10;;
75937;SDS011;64615;32.062;34.834;2024-03-25T12:01:17;3.33;;;1.15;;
75937;SDS011;64615;32.062;34.834;2024-03-25T12:03:42;2.65;;;1.02;;
75937;SDS011;64615;32.062;34.834;2024-03-25T12:06:08;2.92;;;0.98;;
75937;SDS011;64615;32.062;34.834;2024-03-25T12:08:34;5.90;;;1.20;;
75937;SDS011;64615;32.062;34.834;2024-03-25T12:11:09;3.28;;;1.02;;
75937;SDS011;64615;32.062;34.834;2024-03-25T12:13:44;3.15;;;1.05;;
75937;SDS011;64615;32.062;34.834;2024-03-25T12:16:10;4.80;;;1.30;;
75937;SDS011;64615;32.062;34.834;2024-03-25T12:18:36;4.55;;;1.25;;
75937;SDS011;64615;32.062;34.834;2024-03-25T12:21:09;4.97;;;1.10;;
75937;SDS011;64615;32.062;34.834;2024-03-25T12:23:36;4.60;;;1.20;;
75937;SDS011;64615;32.062;34.834;2024-03-25T12:26:02;4.65;;;0.98;;
75937;SDS011;64615;32.062;34.834;2024-03-25T12:28:32;4.55;;;1.33;;
75937;SDS011;64615;32.062;34.834;2024-03-25T12:31:00;13.00;;;2.10;;
75937;SDS011;64615;32.062;34.834;2024-03-25T12:33:25;11.10;;;1.50;;
75937;SDS011;64615;32.062;34.834;2024-03-25T12:35:51;7.00;;;1.58;;
75937;SDS011;64615;32.062;34.834;2024-03-25T12:38:36;21.25;;;2.10;;
75937;SDS011;64615;32.062;34.834;2024-03-25T12:43:31;9.05;;;1.63;;
75937;SDS011;64615;32.062;34.834;2024-03-25T12:45:58;4.32;;;1.23;;
75937;SDS011;64615;32.062;34.834;2024-03-25T12:48:24;14.02;;;1.95;;
75937;SDS011;64615;32.062;34.834;2024-03-25T12:50:50;9.00;;;1.75;;
75937;SDS011;64615;32.062;34.834;2024-03-25T12:53:16;8.55;;;1.70;;
75937;SDS011;64615;32.062;34.834;2024-03-25T12:55:44;5.75;;;1.30;;
75937;SDS011;64615;32.062;34.834;2024-03-25T12:58:11;9.85;;;1.77;;
75937;SDS011;64615;32.062;34.834;2024-03-25T13:00:36;6.38;;;1.50;;
75937;SDS011;64615;32.062;34.834;2024-03-25T13:03:03;7.85;;;1.58;;
75937;SDS011;64615;32.062;34.834;2024-03-25T13:05:35;8.18;;;1.42;;
75937;SDS011;64615;32.062;34.834;2024-03-25T13:08:01;14.75;;;1.80;;
75937;SDS011;64615;32.062;34.834;2024-03-25T13:10:31;11.20;;;1.27;;
75937;SDS011;64615;32.062;34.834;2024-03-25T13:12:56;15.35;;;1.67;;
75937;SDS011;64615;32.062;34.834;2024-03-25T13:15:22;12.93;;;1.80;;
75937;SDS011;64615;32.062;34.834;2024-03-25T13:17:48;12.20;;;1.50;;
75937;SDS011;64615;32.062;34.834;2024-03-25T13:20:14;6.45;;;1.60;;
75937;SDS011;64615;32.062;34.834;2024-03-25T13:22:40;8.43;;;1.42;;
75937;SDS011;64615;32.062;34.834;2024-03-25T13:25:06;9.88;;;1.50;;
75937;SDS011;64615;32.062;34.834;2024-03-25T13:27:32;12.07;;;2.15;;
75937;SDS011;64615;32.062;34.834;2024-03-25T13:29:58;3.42;;;1.10;;
75937;SDS011;64615;32.062;34.834;2024-03-25T13:32:24;5.53;;;1.10;;
75937;SDS011;64615;32.062;34.834;2024-03-25T13:34:50;4.68;;;1.15;;
75937;SDS011;64615;32.062;34.834;2024-03-25T13:37:15;4.65;;;1.60;;
75937;SDS011;64615;32.062;34.834;2024-03-25T13:39:41;4.00;;;1.15;;
75937;SDS011;64615;32.062;34.834;2024-03-25T13:42:07;3.80;;;1.23;;
75937;SDS011;64615;32.062;34.834;2024-03-25T13:44:32;3.65;;;1.10;;
75937;SDS011;64615;32.062;34.834;2024-03-25T13:46:58;3.38;;;1.13;;
75937;SDS011;64615;32.062;34.834;2024-03-25T13:49:24;5.60;;;1.20;;
75937;SDS011;64615;32.062;34.834;2024-03-25T13:51:56;3.53;;;1.20;;
75937;SDS011;64615;32.062;34.834;2024-03-25T13:54:24;4.32;;;1.40;;
75937;SDS011;64615;32.062;34.834;2024-03-25T13:56:52;4.82;;;1.35;;
75937;SDS011;64615;32.062;34.834;2024-03-25T13:59:18;3.85;;;1.27;;
75937;SDS011;64615;32.062;34.834;2024-03-25T14:01:44;3.72;;;1.10;;
75937;SDS011;64615;32.062;34.834;2024-03-25T14:04:10;6.38;;;1.23;;
75937;SDS011;64615;32.062;34.834;2024-03-25T14:06:36;4.78;;;1.40;;
75937;SDS011;64615;32.062;34.834;2024-03-25T14:09:02;8.90;;;1.75;;
75937;SDS011;64615;32.062;34.834;2024-03-25T14:11:34;10.93;;;1.48;;
75937;SDS011;64615;32.062;34.834;2024-03-25T14:14:00;8.73;;;1.30;;
75937;SDS011;64615;32.062;34.834;2024-03-25T14:16:26;9.95;;;1.67;;
75937;SDS011;64615;32.062;34.834;2024-03-25T14:18:52;9.95;;;1.40;;
75937;SDS011;64615;32.062;34.834;2024-03-25T14:21:18;6.43;;;1.38;;
75937;SDS011;64615;32.062;34.834;2024-03-25T14:23:43;8.10;;;1.42;;
75937;SDS011;64615;32.062;34.834;2024-03-25T14:26:11;7.45;;;1.25;;
75937;SDS011;64615;32.062;34.834;2024-03-25T14:28:40;6.95;;;1.35;;
75937;SDS011;64615;32.062;34.834;2024-03-25T14:31:06;8.98;;;1.58;;
75937;SDS011;64615;32.062;34.834;2024-03-25T14:33:31;9.45;;;1.60;;
75937;SDS011;64615;32.062;34.834;2024-03-25T14:35:57;3.67;;;1.20;;